EPRZ

Rzeszów-Jasionka Airport

Rzeszów, Poland
METAR EPRZ 230230Z 02002KT CAVOK 10/10 Q1018
Observed Flight Rules
May-23 @ 02:30 UTC (34 minutes ago) Visual Flight Rules
Wind Visibility Clouds
20° at 2 knots 10,000+ meters
  • Clear skies
Temperatures Readings
Current 10°C / 50°F
Dewpoint 10°C / 50°F
Humidity 100%
Altimeter 30.06" Hg
Pressure 1018 hPa
Elevation 202
METAR EPRZ 230230Z 02002KT CAVOK 10/10 Q1018
Observed Flight Rules
May-23 @ 02:30 UTC
(34 minutes ago)
VFR
Wind Visibility
20° at 2 knots 10,000+ meters
Clouds
  • Clear skies
Temperature Dewpoint
10°C / 50°F 10°C / 50°F
Humidity Altimeter Pressure
100% 30.06" Hg 1018 hPa